Time;durP1;ratioP1;P1;durP2;ratioP2;P2;SDS_P1;SDS_P2;PMS_P1;PMS_P2;Temp;Humidity;BMP_temperature;BMP_pressure;BME280_temperature;BME280_humidity;BME280_pressure;Samples;Min_cycle;Max_cycle;Signal;HPM_P1;HPM_P2
2023/09/14 00:01:46;;;;;;;15.73;9.23;;;;;;;-141.97;54.27;47317.28;5034003;28;20162;-82
2023/09/14 00:04:11;;;;;;;20.37;9.33;;;;;;;-141.97;54.42;47351.88;5033843;28;20197;-83
2023/09/14 00:06:37;;;;;;;16.60;8.33;;;;;;;-141.97;54.66;47496.00;5033990;28;20186;-83
2023/09/14 00:09:03;;;;;;;17.07;8.37;;;;;;;-141.97;55.02;47419.13;5033782;28;20675;-83
2023/09/14 00:11:28;;;;;;;18.50;8.57;;;;;;;-141.97;55.15;47488.31;5033706;28;20158;-82
2023/09/14 00:13:53;;;;;;;19.83;8.40;;;;;;;-141.97;55.02;47447.97;5033492;28;20166;-82
2023/09/14 00:16:19;;;;;;;21.67;8.60;;;;;;;-141.97;55.45;47619.03;5033872;28;20519;-82
2023/09/14 00:18:44;;;;;;;19.50;8.27;;;;;;;-141.97;55.72;47436.44;5031939;28;20655;-84
2023/09/14 00:21:10;;;;;;;18.30;8.90;;;;;;;-141.97;56.36;47434.50;5033534;28;20193;-83
2023/09/14 00:23:35;;;;;;;18.87;8.57;;;;;;;-141.97;56.65;47359.56;5033373;28;20173;-84
2023/09/14 00:26:01;;;;;;;18.30;8.27;;;;;;;-141.97;56.38;47444.13;5032076;28;20689;-83
2023/09/14 00:28:26;;;;;;;17.80;8.23;;;;;;;-141.97;56.56;47376.84;5033403;28;20177;-83
2023/09/14 00:30:55;;;;;;;16.73;8.27;;;;;;;-141.97;56.84;47442.19;5034597;28;20158;-83
2023/09/14 00:33:22;;;;;;;16.70;8.10;;;;;;;-141.97;56.77;47421.06;5033602;28;20186;-83
2023/09/14 00:35:48;;;;;;;18.70;8.03;;;;;;;-141.97;57.23;47301.91;5033427;28;20575;-83
2023/09/14 00:38:13;;;;;;;15.03;7.87;;;;;;;-141.97;57.58;47440.28;5033014;28;20181;-83
2023/09/14 00:40:39;;;;;;;14.30;7.50;;;;;;;-141.97;57.78;47446.03;5033310;28;20524;-84
2023/09/14 00:43:04;;;;;;;16.87;7.80;;;;;;;-141.97;58.06;47551.75;5033847;28;20216;-83
2023/09/14 00:45:31;;;;;;;14.53;7.80;;;;;;;-141.97;58.53;47407.59;5033594;28;20654;-84
2023/09/14 00:47:58;;;;;;;14.57;7.80;;;;;;;-141.97;58.68;47346.09;5033913;28;20173;-83
2023/09/14 00:50:24;;;;;;;16.97;7.70;;;;;;;-141.97;58.36;47438.34;5033488;28;20182;-83
2023/09/14 00:52:54;;;;;;;18.37;7.83;;;;;;;-141.97;58.33;47428.75;5032284;28;20222;-83
2023/09/14 00:55:20;;;;;;;14.17;7.83;;;;;;;-141.97;58.62;47436.44;5033303;28;20249;-83
2023/09/14 00:57:49;;;;;;;15.90;8.33;;;;;;;-141.97;58.51;47432.59;5033473;28;20165;-83
2023/09/14 01:00:16;;;;;;;12.23;8.00;;;;;;;-141.97;58.91;47451.81;5023824;28;20661;-83
2023/09/14 01:02:42;;;;;;;14.37;7.93;;;;;;;-141.97;58.96;47684.38;5033411;28;20219;-82
2023/09/14 01:05:08;;;;;;;16.27;8.07;;;;;;;-141.97;58.99;47432.59;5033997;28;20248;-82
2023/09/14 01:07:34;;;;;;;13.50;7.53;;;;;;;-141.97;59.12;47461.41;5047860;28;20174;-83
2023/09/14 01:10:00;;;;;;;17.50;8.27;;;;;;;-141.97;59.37;47459.50;5044778;28;20613;-81
2023/09/14 01:12:26;;;;;;;14.60;8.50;;;;;;;-141.97;58.94;47457.56;5040039;28;20216;-82
2023/09/14 01:15:03;;;;;;;17.43;8.13;;;;;;;-141.97;59.30;47451.81;5034243;28;20181;-82
2023/09/14 01:17:56;;;;;;;13.70;7.67;;;;;;;-141.97;59.24;47484.47;5034513;28;20161;-82
2023/09/14 01:20:46;;;;;;;16.23;7.70;;;;;;;-141.97;59.42;47432.59;5035445;28;20257;-82
2023/09/14 01:23:47;;;;;;;14.43;8.30;;;;;;;-141.97;59.53;47474.88;5040237;28;20598;-82
2023/09/14 01:26:14;;;;;;;13.40;7.70;;;;;;;-141.97;59.91;47361.47;5032662;28;20201;-82
2023/09/14 01:28:40;;;;;;;13.57;7.83;;;;;;;-141.97;59.70;47411.44;5042578;28;20166;-83
2023/09/14 01:31:05;;;;;;;14.93;8.30;;;;;;;-141.97;60.01;47434.50;5042742;28;20169;-82
2023/09/14 01:33:31;;;;;;;13.50;8.10;;;;;;;-141.97;59.67;47680.53;5048649;28;20162;-82
2023/09/14 01:36:05;;;;;;;14.97;7.87;;;;;;;-141.97;59.90;47426.81;5048249;28;20613;-83
2023/09/14 01:38:33;;;;;;;13.87;7.77;;;;;;;-141.97;60.24;47480.63;5041130;28;20166;-83
2023/09/14 01:40:59;;;;;;;10.27;7.40;;;;;;;-141.97;59.63;47434.50;5056372;28;20200;-82
2023/09/14 01:43:25;;;;;;;12.43;7.60;;;;;;;-141.97;59.34;47363.41;5043537;28;20647;-83
2023/09/14 01:45:51;;;;;;;14.67;7.60;;;;;;;-141.97;59.33;47390.31;5030906;28;20693;-82
2023/09/14 01:48:18;;;;;;;14.73;7.80;;;;;;;-141.97;59.17;47490.25;5032324;28;20192;-81
2023/09/14 01:50:44;;;;;;;13.40;7.20;;;;;;;-141.97;59.91;47622.88;5031632;28;20182;-82
2023/09/14 01:53:10;;;;;;;11.70;8.43;;;;;;;-141.97;59.69;47353.78;5031777;28;20716;-81
2023/09/14 01:55:35;;;;;;;13.00;7.63;;;;;;;-141.97;60.14;47446.03;5036898;28;20154;-81
2023/09/14 01:58:01;;;;;;;16.23;7.70;;;;;;;-141.97;59.65;47505.63;5035826;28;20220;-82
2023/09/14 02:00:26;;;;;;;13.53;7.50;;;;;;;-141.97;59.85;47257.69;5019812;28;20291;-81
2023/09/14 02:02:54;;;;;;;17.07;9.60;;;;;;;-141.97;60.67;47517.16;5036780;28;20170;-81
2023/09/14 02:05:20;;;;;;;20.20;9.57;;;;;;;-141.97;60.10;47413.38;5047410;28;20194;-81
2023/09/14 02:07:46;;;;;;;23.17;10.13;;;;;;;-141.97;60.21;47490.25;5035500;28;20162;-81
2023/09/14 02:10:13;;;;;;;19.30;9.80;;;;;;;-141.97;60.64;47311.50;5031284;28;20178;-82
2023/09/14 02:12:38;;;;;;;19.63;10.07;;;;;;;-141.97;60.81;47474.88;5031439;28;20153;-81
2023/09/14 02:15:04;;;;;;;18.53;9.77;;;;;;;-141.97;60.94;47428.75;5031282;28;20184;-82
2023/09/14 02:17:30;;;;;;;20.23;9.83;;;;;;;-141.97;61.24;47434.50;5031523;28;20602;-81
2023/09/14 02:19:56;;;;;;;24.20;10.13;;;;;;;-141.97;61.28;47411.44;5031113;28;20626;-81
2023/09/14 02:22:22;;;;;;;23.87;10.00;;;;;;;-141.97;61.33;47398.00;5031322;28;20166;-81
2023/09/14 02:24:47;;;;;;;26.20;11.00;;;;;;;-141.97;61.60;47442.19;5031246;28;20177;-81
2023/09/14 02:27:13;;;;;;;18.20;10.57;;;;;;;-141.97;61.42;47484.47;5031101;28;20255;-82
2023/09/14 02:29:38;;;;;;;20.87;9.97;;;;;;;-141.97;61.66;47469.09;5030953;28;20195;-82
2023/09/14 02:32:06;;;;;;;19.97;10.43;;;;;;;-141.97;62.29;47311.50;5031279;28;20170;-81
2023/09/14 02:34:31;;;;;;;23.00;10.67;;;;;;;-141.97;62.17;47234.63;5031305;28;20166;-81
2023/09/14 02:36:56;;;;;;;19.07;10.20;;;;;;;-141.97;62.34;47472.94;5030797;28;20154;-81
2023/09/14 02:39:22;;;;;;;23.20;11.33;;;;;;;-141.97;62.83;47342.25;5029579;28;20763;-80
2023/09/14 02:41:47;;;;;;;19.97;11.67;;;;;;;-141.97;63.96;47480.63;5030899;28;20158;-81
2023/09/14 02:44:12;;;;;;;20.00;10.97;;;;;;;-141.97;63.58;47442.19;5031067;28;20613;-81
2023/09/14 02:46:38;;;;;;;22.80;10.43;;;;;;;-141.97;63.60;47461.41;5030618;28;20206;-82
2023/09/14 02:49:03;;;;;;;17.80;10.17;;;;;;;-141.97;64.23;47317.28;5030744;28;20169;-81
2023/09/14 02:51:29;;;;;;;17.87;11.07;;;;;;;-141.97;63.67;47467.19;5030738;28;20563;-82
2023/09/14 02:53:54;;;;;;;19.47;11.13;;;;;;;-141.97;63.21;47472.94;5030889;28;20656;-81
2023/09/14 02:56:19;;;;;;;21.63;10.43;;;;;;;-141.97;63.21;47480.63;5030637;28;20200;-81
2023/09/14 02:58:45;;;;;;;21.93;10.90;;;;;;;-141.97;63.69;47474.88;5034466;28;20188;-81
2023/09/14 03:01:10;;;;;;;18.47;10.77;;;;;;;-141.97;64.34;47438.34;5024063;28;20629;-82
2023/09/14 03:03:37;;;;;;;24.23;11.00;;;;;;;-141.97;63.65;47492.16;5034501;28;20181;-82
2023/09/14 03:06:02;;;;;;;15.77;10.80;;;;;;;-141.97;65.21;47455.66;5033139;28;20197;-82
2023/09/14 03:08:28;;;;;;;19.57;11.60;;;;;;;-141.97;66.37;47469.09;5034879;28;20166;-82
2023/09/14 03:10:53;;;;;;;19.67;10.83;;;;;;;-141.97;65.94;47467.19;5033908;28;20487;-81
2023/09/14 03:13:18;;;;;;;22.70;11.40;;;;;;;-141.97;66.98;47469.09;5034818;28;20173;-82
2023/09/14 03:15:44;;;;;;;22.37;10.87;;;;;;;-141.97;66.78;47488.31;5034980;28;20177;-82
2023/09/14 03:18:09;;;;;;;19.77;10.90;;;;;;;-141.97;66.24;47471.03;5034833;28;20166;-81
2023/09/14 03:20:35;;;;;;;21.67;11.10;;;;;;;-141.97;65.99;47496.00;5034994;28;20696;-81
2023/09/14 03:23:02;;;;;;;21.77;11.30;;;;;;;-141.97;65.64;47507.53;5032880;28;20694;-81
2023/09/14 03:25:28;;;;;;;23.60;10.73;;;;;;;-141.97;65.61;47355.72;5037067;28;20194;-82
2023/09/14 03:27:53;;;;;;;22.73;11.40;;;;;;;-141.97;65.50;47580.59;5048991;28;20177;-82
2023/09/14 03:30:18;;;;;;;21.23;11.67;;;;;;;-141.97;65.62;47469.09;5050915;28;20170;-82
2023/09/14 03:32:44;;;;;;;22.37;11.87;;;;;;;-141.97;65.30;47484.47;5052109;28;20646;-82
2023/09/14 03:35:09;;;;;;;24.53;12.20;;;;;;;-141.97;65.20;47461.41;5050232;28;20174;-80
2023/09/14 03:37:35;;;;;;;20.70;11.70;;;;;;;-141.97;65.52;47480.63;5040561;28;20272;-82
2023/09/14 03:40:01;;;;;;;19.63;11.40;;;;;;;-141.97;65.87;47572.91;5039158;28;20196;-83
2023/09/14 03:42:26;;;;;;;21.57;11.60;;;;;;;-141.97;65.72;47465.25;5039939;28;20170;-82
2023/09/14 03:44:52;;;;;;;18.07;11.40;;;;;;;-141.97;66.02;47457.56;5041295;28;20254;-84
2023/09/14 03:47:17;;;;;;;22.33;11.43;;;;;;;-141.97;65.89;47476.78;5038703;28;20210;-80
2023/09/14 03:49:43;;;;;;;21.33;11.53;;;;;;;-141.97;66.49;47499.84;5035518;28;20224;-79
2023/09/14 03:52:08;;;;;;;24.17;11.93;;;;;;;-141.97;67.59;47436.44;5034053;28;20174;-80
2023/09/14 03:54:33;;;;;;;21.67;11.70;;;;;;;-141.97;67.61;47492.16;5035635;28;20243;-81
2023/09/14 03:56:59;;;;;;;21.53;12.17;;;;;;;-141.97;68.18;47680.53;5036017;28;20896;-80
2023/09/14 03:59:24;;;;;;;19.10;12.33;;;;;;;-141.97;68.05;47428.75;5034299;28;20170;-80
2023/09/14 04:01:50;;;;;;;25.83;12.10;;;;;;;-141.97;67.66;47488.31;5024085;28;20529;-81
2023/09/14 04:04:15;;;;;;;20.10;11.80;;;;;;;-141.97;67.25;47438.34;5033452;28;20687;-81
2023/09/14 04:06:40;;;;;;;30.17;12.93;;;;;;;-141.97;67.23;47499.84;5032611;28;20202;-80
2023/09/14 04:09:06;;;;;;;25.60;13.23;;;;;;;-141.97;66.57;47482.56;5033179;28;20245;-80
2023/09/14 04:11:32;;;;;;;28.73;13.57;;;;;;;-141.97;66.24;47499.84;5032196;28;20320;-80
2023/09/14 04:13:58;;;;;;;32.30;13.17;;;;;;;-141.97;66.18;47511.38;5033138;28;20228;-81
2023/09/14 04:16:28;;;;;;;26.97;12.93;;;;;;;-141.97;65.95;47474.88;5034174;28;20162;-82
2023/09/14 04:18:53;;;;;;;29.43;12.80;;;;;;;-141.97;65.97;47461.41;5034157;28;20162;-81
2023/09/14 04:21:18;;;;;;;34.80;13.90;;;;;;;-141.97;65.80;47492.16;5034094;28;20603;-81
2023/09/14 04:23:45;;;;;;;34.00;13.83;;;;;;;-141.97;65.36;47484.47;5032738;28;20181;-81
2023/09/14 04:26:10;;;;;;;31.37;13.10;;;;;;;-141.97;64.95;47438.34;5033325;28;20627;-81
2023/09/14 04:28:36;;;;;;;27.57;13.47;;;;;;;-141.97;64.63;47488.31;5034293;28;20227;-83
2023/09/14 04:31:02;;;;;;;32.00;13.53;;;;;;;-141.97;65.53;47515.22;5033383;28;20217;-83
2023/09/14 04:33:29;;;;;;;42.93;14.50;;;;;;;-141.97;66.82;47338.41;5032541;28;20166;-83
2023/09/14 04:36:00;;;;;;;32.90;13.73;;;;;;;-141.97;66.85;47488.31;5033351;28;20600;-84
2023/09/14 04:38:25;;;;;;;26.07;12.53;;;;;;;-141.97;66.48;47492.16;5033545;28;20279;-82
2023/09/14 04:40:51;;;;;;;27.03;12.50;;;;;;;-141.97;65.77;47440.28;5033009;28;20182;-83
2023/09/14 04:43:16;;;;;;;24.13;12.37;;;;;;;-141.97;65.74;47415.28;5031392;28;20566;-83
2023/09/14 04:45:45;;;;;;;26.40;12.97;;;;;;;-141.97;66.75;47590.19;5033257;28;20190;-83
2023/09/14 04:48:10;;;;;;;28.20;14.43;;;;;;;-141.97;66.38;47519.06;5032767;28;20182;-83
2023/09/14 04:50:36;;;;;;;22.60;14.47;;;;;;;-141.97;66.92;47484.47;5032764;28;20236;-83
2023/09/14 04:53:01;;;;;;;30.93;15.33;;;;;;;-141.97;67.20;47357.63;5032653;28;20221;-83
2023/09/14 04:55:27;;;;;;;32.97;16.10;;;;;;;-141.97;67.04;47580.59;5034148;28;20510;-83
2023/09/14 04:57:52;;;;;;;26.57;13.57;;;;;;;-141.97;66.83;47507.53;5034594;28;20169;-83
2023/09/14 05:00:18;;;;;;;28.97;14.10;;;;;;;-141.97;66.91;47374.94;5037762;28;20251;-83
2023/09/14 05:02:43;;;;;;;25.97;13.10;;;;;;;-141.97;67.17;47484.47;5047233;28;20177;-82
2023/09/14 05:05:09;;;;;;;24.07;13.27;;;;;;;-141.97;66.92;47355.72;5036736;28;20186;-83
2023/09/14 05:07:35;;;;;;;28.60;14.07;;;;;;;-141.97;67.21;47446.03;5037692;28;20239;-82
2023/09/14 05:10:01;;;;;;;26.00;13.33;;;;;;;-141.97;67.50;47392.22;5033949;28;20162;-82
2023/09/14 05:12:28;;;;;;;22.83;12.80;;;;;;;-141.97;67.66;47486.41;5044832;28;20642;-82
2023/09/14 05:14:53;;;;;;;21.90;13.17;;;;;;;-141.97;67.55;47521.00;5033033;28;20162;-82
2023/09/14 05:17:19;;;;;;;23.20;12.60;;;;;;;-141.97;68.06;47634.41;5034864;28;20189;-84
2023/09/14 05:19:44;;;;;;;22.40;12.97;;;;;;;-141.97;67.92;47436.44;5032870;28;20249;-82
2023/09/14 05:22:10;;;;;;;25.53;13.37;;;;;;;-141.97;68.10;47519.06;5030476;28;20208;-84
2023/09/14 05:24:38;;;;;;;25.13;12.73;;;;;;;-141.97;67.92;47499.84;5032235;28;20551;-85
2023/09/14 05:27:04;;;;;;;21.63;12.37;;;;;;;-141.97;68.29;47455.66;5032740;28;20255;-82
2023/09/14 05:29:29;;;;;;;25.37;13.03;;;;;;;-141.97;68.12;47355.72;5033018;28;20166;-85
2023/09/14 05:31:55;;;;;;;21.93;13.10;;;;;;;-141.97;69.93;47492.16;5033225;28;20224;-83
2023/09/14 05:34:20;;;;;;;23.30;13.47;;;;;;;-141.97;70.88;47409.53;5031973;28;20174;-84
2023/09/14 05:36:45;;;;;;;27.40;14.17;;;;;;;-141.97;71.64;47513.31;5032011;28;20172;-82
2023/09/14 05:39:12;;;;;;;24.60;14.13;;;;;;;-141.97;70.26;47492.16;5032205;28;20170;-84
2023/09/14 05:41:46;;;;;;;22.90;13.10;;;;;;;-141.97;69.40;47488.31;5108864;27;20543;-81
2023/09/14 05:44:12;;;;;;;23.30;13.67;;;;;;;-141.97;68.76;47417.22;5109420;28;20171;-83
2023/09/14 05:46:38;;;;;;;25.63;13.57;;;;;;;-141.97;68.13;47453.72;5127979;28;20193;-81
2023/09/14 05:49:04;;;;;;;25.17;13.40;;;;;;;-141.97;67.12;47492.16;5121522;28;20160;-82
2023/09/14 05:51:30;;;;;;;24.37;12.90;;;;;;;-141.97;66.28;47434.50;5121061;28;20663;-85
2023/09/14 05:53:55;;;;;;;23.73;13.73;;;;;;;-141.97;65.97;47484.47;5102768;28;20188;-83
2023/09/14 05:56:21;;;;;;;32.87;14.17;;;;;;;-141.97;66.72;47271.16;5115422;28;20170;-82
2023/09/14 05:58:47;;;;;;;27.10;14.77;;;;;;;-141.97;66.29;47501.78;5113412;28;20224;-81
2023/09/14 06:01:13;;;;;;;26.30;13.97;;;;;;;-141.97;66.28;47613.25;5085540;28;20240;-82
2023/09/14 06:03:38;;;;;;;34.20;14.87;;;;;;;-141.97;66.83;47499.84;5068565;28;20157;-82
2023/09/14 06:06:03;;;;;;;28.07;15.10;;;;;;;-141.97;65.82;47415.28;5068887;28;20181;-83
2023/09/14 06:08:29;;;;;;;28.40;14.53;;;;;;;-141.97;65.19;47496.00;5068197;28;20169;-81
2023/09/14 06:10:54;;;;;;;30.70;15.13;;;;;;;-141.97;63.94;47584.44;5067816;28;20169;-82
2023/09/14 06:13:20;;;;;;;27.93;14.80;;;;;;;-141.97;64.72;47465.25;5067392;28;20165;-82
2023/09/14 06:15:46;;;;;;;32.40;15.03;;;;;;;-141.97;64.97;47496.00;5050191;28;20611;-82
2023/09/14 06:18:12;;;;;;;29.37;15.30;;;;;;;-141.97;63.95;47465.25;5065776;28;20729;-82
2023/09/14 06:20:37;;;;;;;28.57;15.80;;;;;;;-141.97;63.67;47628.63;5068343;28;20236;-83
2023/09/14 06:23:03;;;;;;;31.37;15.50;;;;;;;-141.97;63.60;47484.47;5068051;28;20637;-84
2023/09/14 06:25:28;;;;;;;26.80;15.20;;;;;;;-141.97;63.13;47499.84;5067971;28;20553;-84
2023/09/14 06:27:53;;;;;;;31.63;15.43;;;;;;;-141.97;63.18;47476.78;5068130;28;20633;-83
2023/09/14 06:30:19;;;;;;;34.97;16.90;;;;;;;-141.97;62.35;47471.03;5075561;28;20244;-83
2023/09/14 06:32:44;;;;;;;35.67;16.93;;;;;;;-141.97;61.10;47242.31;5072575;28;20178;-83
2023/09/14 06:35:10;;;;;;;30.73;14.23;;;;;;;-141.97;60.70;47388.38;5067280;28;20169;-85
2023/09/14 06:37:36;;;;;;;23.40;14.07;;;;;;;-141.97;61.40;47476.78;5076963;28;20169;-84
2023/09/14 06:40:03;;;;;;;30.57;15.37;;;;;;;-141.97;61.13;47409.53;5049274;28;20231;-84
2023/09/14 06:42:29;;;;;;;26.70;14.83;;;;;;;-141.97;59.97;47567.13;5068211;28;20158;-83
2023/09/14 06:44:54;;;;;;;26.13;13.93;;;;;;;-141.97;59.70;47442.19;5053240;28;20169;-82
2023/09/14 06:47:20;;;;;;;27.97;13.70;;;;;;;-141.97;58.90;47471.03;5075264;28;20165;-81
2023/09/14 06:49:45;;;;;;;30.93;14.47;;;;;;;-141.97;58.79;47467.19;5049377;28;20176;-84
2023/09/14 06:52:10;;;;;;;26.10;13.87;;;;;;;-141.97;58.83;47549.84;5058857;28;20169;-84
2023/09/14 06:54:36;;;;;;;26.77;14.20;;;;;;;-141.97;57.12;47449.88;5035821;28;20192;-84
2023/09/14 06:57:01;;;;;;;26.47;14.83;;;;;;;-141.97;56.29;47657.47;5053899;28;20181;-83
2023/09/14 06:59:27;;;;;;;24.63;13.17;;;;;;;-141.97;54.08;47457.56;5053761;28;20180;-83
2023/09/14 07:01:53;;;;;;;28.67;15.07;;;;;;;-141.97;53.42;47399.91;5043643;28;20229;-83
2023/09/14 07:04:18;;;;;;;38.73;19.10;;;;;;;-141.97;52.63;47476.78;5053805;28;20161;-85
2023/09/14 07:06:43;;;;;;;37.00;20.13;;;;;;;-141.97;52.52;47299.97;5053746;28;20649;-85
2023/09/14 07:09:09;;;;;;;32.03;18.30;;;;;;;-141.97;51.76;47638.25;5053872;28;20165;-85
2023/09/14 07:11:35;;;;;;;31.37;16.53;;;;;;;-141.97;50.69;47417.22;5054177;28;20571;-84
2023/09/14 07:14:02;;;;;;;23.43;13.77;;;;;;;-141.97;49.54;47426.81;5036095;28;20173;-82
2023/09/14 07:16:27;;;;;;;28.67;14.40;;;;;;;-141.97;49.07;47305.75;5035275;28;20184;-83
2023/09/14 07:18:52;;;;;;;25.20;13.50;;;;;;;-141.97;48.06;47444.13;5035903;28;20166;-83
2023/09/14 07:21:18;;;;;;;29.93;15.23;;;;;;;-141.97;47.91;47386.47;5052959;28;20212;-83
2023/09/14 07:23:43;;;;;;;24.90;13.83;;;;;;;-141.97;47.11;47319.19;5053430;28;20193;-83
2023/09/14 07:26:09;;;;;;;26.33;13.60;;;;;;;-141.97;45.90;47442.19;5035454;28;20177;-83
2023/09/14 07:28:34;;;;;;;28.17;13.50;;;;;;;-141.97;46.40;47411.44;5054223;28;20532;-83
2023/09/14 07:31:03;;;;;;;30.73;13.40;;;;;;;-141.97;46.88;47451.81;5053173;28;20184;-83
2023/09/14 07:33:29;;;;;;;23.70;13.67;;;;;;;-141.97;46.60;47507.53;5053564;28;20256;-83
2023/09/14 07:35:55;;;;;;;27.70;13.60;;;;;;;-141.97;46.42;47613.25;5035854;28;20219;-85
2023/09/14 07:38:20;;;;;;;30.03;14.17;;;;;;;-141.97;46.00;47407.59;5053319;28;20721;-84
2023/09/14 07:40:46;;;;;;;25.87;13.60;;;;;;;-141.97;45.45;47611.34;5043757;28;20244;-84
2023/09/14 07:43:12;;;;;;;23.67;13.70;;;;;;;-141.97;44.77;47311.50;5049526;28;20204;-82
2023/09/14 07:45:38;;;;;;;25.57;13.37;;;;;;;-141.97;44.04;47384.53;5054322;28;20212;-84
2023/09/14 07:48:05;;;;;;;28.23;13.37;;;;;;;-141.97;43.61;47373.00;5035822;28;20264;-82
2023/09/14 07:50:39;;;;;;;25.13;13.30;;;;;;;-141.97;44.71;47292.28;5054551;28;20180;-83
2023/09/14 07:53:05;;;;;;;23.43;11.90;;;;;;;-141.97;43.95;47390.31;5062483;28;20170;-83
2023/09/14 07:55:31;;;;;;;21.97;12.37;;;;;;;-141.97;43.03;47542.16;5034973;28;20170;-84
2023/09/14 07:57:56;;;;;;;22.50;12.93;;;;;;;-141.97;43.24;47336.50;5052865;28;20241;-82
2023/09/14 08:00:21;;;;;;;24.07;13.23;;;;;;;-141.97;42.81;47376.84;5054517;28;20251;-82
2023/09/14 08:02:47;;;;;;;21.90;12.73;;;;;;;-141.97;42.46;47419.13;5028503;28;20233;-83
2023/09/14 08:05:12;;;;;;;21.90;12.20;;;;;;;-141.97;42.17;47624.78;5054593;28;20602;-82
2023/09/14 08:07:37;;;;;;;22.60;12.10;;;;;;;-141.97;40.83;47388.38;5058003;28;20274;-84
2023/09/14 08:10:03;;;;;;;20.83;12.95;;;;;;;-141.97;40.89;47446.03;5055482;28;20181;-81
2023/09/14 08:12:29;;;;;;;18.98;12.48;;;;;;;-141.97;41.15;47407.59;5055842;28;20483;-82
2023/09/14 08:14:54;;;;;;;19.50;11.87;;;;;;;-141.97;41.90;47595.97;5034031;28;20174;-83
2023/09/14 08:17:19;;;;;;;18.33;12.00;;;;;;;-141.97;42.68;47421.06;5052356;28;20197;-82
2023/09/14 08:19:45;;;;;;;18.80;11.83;;;;;;;-141.97;43.18;47415.28;5051648;28;20366;-82
2023/09/14 08:22:10;;;;;;;17.13;11.80;;;;;;;-141.97;42.32;47380.69;5051199;28;20172;-83
2023/09/14 08:24:36;;;;;;;18.13;10.60;;;;;;;-141.97;41.84;47649.78;5052429;28;20621;-83
2023/09/14 08:27:01;;;;;;;20.37;11.00;;;;;;;-141.97;40.67;47348.03;5051979;28;20165;-82
2023/09/14 08:29:26;;;;;;;20.55;11.35;;;;;;;-141.97;40.20;47392.22;5052292;28;20347;-83
2023/09/14 08:31:52;;;;;;;21.35;11.85;;;;;;;-141.97;40.38;47415.28;5051845;28;20181;-82
2023/09/14 08:34:17;;;;;;;21.53;12.40;;;;;;;-141.97;41.99;47299.97;5034397;28;20558;-82
2023/09/14 08:36:43;;;;;;;22.73;11.87;;;;;;;-141.97;40.91;47453.72;5052208;28;20210;-83
2023/09/14 08:39:08;;;;;;;19.52;12.13;;;;;;;-141.97;39.94;47430.66;5059922;28;20171;-82
2023/09/14 08:41:40;;;;;;;17.25;10.80;;;;;;;-141.97;39.26;47369.16;5051380;28;20674;-82
2023/09/14 08:44:06;;;;;;;18.75;11.38;;;;;;;-141.97;37.86;47344.19;5051157;28;20160;-83
2023/09/14 08:46:34;;;;;;;23.38;11.90;;;;;;;-141.97;37.75;47353.78;5051523;28;20308;-82
2023/09/14 08:49:10;;;;;;;20.73;11.57;;;;;;;-141.97;37.05;47324.97;5033730;28;20649;-83
2023/09/14 08:51:42;;;;;;;22.38;12.23;;;;;;;-141.97;37.22;47217.34;5032828;28;20182;-82
2023/09/14 08:54:08;;;;;;;22.20;11.95;;;;;;;-141.97;37.42;47507.53;5051518;28;20643;-82
2023/09/14 08:56:37;;;;;;;27.25;11.23;;;;;;;-141.97;36.97;47594.03;5051069;28;20178;-83
2023/09/14 08:59:06;;;;;;;22.02;11.63;;;;;;;-141.97;37.10;47490.25;5050991;28;20655;-83
2023/09/14 09:01:38;;;;;;;22.67;12.73;;;;;;;-141.97;37.09;47592.13;5043088;28;20233;-83
2023/09/14 09:04:03;;;;;;;19.85;12.18;;;;;;;-141.97;37.87;47415.28;5069516;28;20179;-83
2023/09/14 09:06:30;;;;;;;21.80;13.02;;;;;;;-141.97;37.60;47453.72;5061651;28;20180;-83
2023/09/14 09:08:59;;;;;;;18.27;12.07;;;;;;;-141.97;37.34;47346.09;5051216;28;20167;-83
2023/09/14 09:11:24;;;;;;;20.40;12.32;;;;;;;-141.97;37.42;47353.78;5055562;28;20175;-81
2023/09/14 09:13:50;;;;;;;24.23;13.48;;;;;;;-141.97;36.55;47198.09;5053064;28;20542;-85
2023/09/14 09:16:15;;;;;;;25.42;14.13;;;;;;;-141.97;36.44;47269.22;5032946;28;20172;-81
2023/09/14 09:19:00;;;;;;;26.10;14.85;;;;;;;-141.97;36.26;47340.34;5051639;28;20168;-87
2023/09/14 09:21:32;;;;;;;26.67;15.32;;;;;;;-141.97;35.37;47323.03;5032783;28;20208;-83
2023/09/14 09:23:59;;;;;;;24.40;16.38;;;;;;;-141.97;35.66;47242.31;5050746;28;20248;-82
2023/09/14 09:26:32;;;;;;;21.77;14.52;;;;;;;-141.97;35.91;47351.88;5032779;28;20180;-81
2023/09/14 09:28:57;;;;;;;26.23;15.05;;;;;;;-141.97;35.60;47561.38;5050631;28;20188;-81
2023/09/14 09:31:40;;;;;;;27.08;14.48;;;;;;;-141.97;35.35;47323.03;5059144;28;20247;-81
2023/09/14 09:34:08;;;;;;;19.23;14.02;;;;;;;-141.97;34.35;47119.31;5053888;28;20248;-81
2023/09/14 09:36:34;;;;;;;23.90;14.48;;;;;;;-141.97;34.42;47209.66;5050929;28;20289;-83
2023/09/14 09:39:04;;;;;;;24.17;13.23;;;;;;;-141.97;34.07;47192.34;5050830;28;20206;-83
2023/09/14 09:41:33;;;;;;;26.00;12.80;;;;;;;-141.97;34.39;47296.13;5032932;28;20747;-82
2023/09/14 09:43:58;;;;;;;22.90;11.82;;;;;;;-141.97;33.67;47340.34;5033157;28;20317;-83
2023/09/14 09:46:24;;;;;;;22.65;11.98;;;;;;;-141.97;34.69;47190.44;5050995;28;20191;-84
2023/09/14 09:48:49;;;;;;;19.08;11.82;;;;;;;-141.97;33.99;47317.28;5050734;28;20197;-84
2023/09/14 09:51:15;;;;;;;23.05;12.35;;;;;;;-141.97;33.62;47330.72;5051290;28;20222;-83
2023/09/14 09:54:03;;;;;;;21.98;11.60;;;;;;;-141.97;33.32;47324.97;5051159;28;20383;-84
2023/09/14 09:56:28;;;;;;;22.48;11.70;;;;;;;-141.97;33.99;47349.94;5055743;28;20590;-82
2023/09/14 09:58:53;;;;;;;21.33;11.98;;;;;;;-141.97;34.45;47282.69;5058427;28;20192;-83
2023/09/14 10:01:22;;;;;;;19.42;10.63;;;;;;;-141.97;34.70;47303.81;5047464;28;20231;-83
2023/09/14 10:03:48;;;;;;;20.88;10.90;;;;;;;-141.97;33.91;47246.16;5055312;28;20223;-85
2023/09/14 10:06:13;;;;;;;18.83;11.10;;;;;;;-141.97;33.70;47282.69;5057663;28;20165;-85
2023/09/14 10:08:39;;;;;;;16.90;10.73;;;;;;;-141.97;32.96;47492.16;5057821;28;20544;-82
2023/09/14 10:11:09;;;;;;;14.63;9.30;;;;;;;-141.97;32.71;47244.25;5047480;28;20175;-84
2023/09/14 10:13:37;;;;;;;16.42;9.50;;;;;;;-141.97;32.62;47217.34;5063613;28;20564;-83
2023/09/14 10:16:03;;;;;;;15.75;9.55;;;;;;;-141.97;32.83;47042.44;5059602;28;20170;-83
2023/09/14 10:18:32;;;;;;;17.83;10.00;;;;;;;-141.97;32.76;47102.03;5057641;28;20510;-83
2023/09/14 10:20:58;;;;;;;18.98;9.43;;;;;;;-141.97;32.51;47228.88;5053987;28;20486;-83
2023/09/14 10:23:27;;;;;;;19.95;9.27;;;;;;;-141.97;32.78;47176.97;5055467;28;20216;-84
2023/09/14 10:25:53;;;;;;;15.60;8.95;;;;;;;-141.97;32.45;47240.41;5053038;28;20204;-83
2023/09/14 10:28:22;;;;;;;14.88;9.40;;;;;;;-141.97;32.80;47284.59;5037088;28;20205;-84
2023/09/14 10:30:50;;;;;;;19.67;9.48;;;;;;;-141.97;32.05;47290.38;5055877;28;20165;-82
2023/09/14 10:33:17;;;;;;;15.68;9.15;;;;;;;-141.97;32.01;47265.38;5036730;28;20235;-84
2023/09/14 10:35:43;;;;;;;14.25;8.38;;;;;;;-141.97;31.98;47192.34;5037551;28;20208;-83
2023/09/14 10:38:12;;;;;;;17.23;8.95;;;;;;;-141.97;31.58;47586.34;5060366;28;20256;-85
2023/09/14 10:40:37;;;;;;;15.82;8.90;;;;;;;-141.97;31.77;47276.91;5037314;28;20335;-83
2023/09/14 10:43:07;;;;;;;17.35;8.40;;;;;;;-141.97;31.56;47142.38;5053948;28;20299;-85
2023/09/14 10:45:45;;;;;;;13.23;8.00;;;;;;;-141.97;31.91;47226.94;5054166;28;20256;-83
2023/09/14 10:48:18;;;;;;;18.52;8.98;;;;;;;-141.97;32.05;47234.63;5053886;28;20588;-84
2023/09/14 10:50:44;;;;;;;17.90;8.80;;;;;;;-141.97;32.31;47167.38;5055055;28;20260;-85
2023/09/14 10:53:09;;;;;;;12.77;8.63;;;;;;;-141.97;31.92;47217.34;5055153;28;20204;-84
2023/09/14 10:55:35;;;;;;;15.00;8.68;;;;;;;-141.97;31.58;47488.31;5036398;28;20177;-82
2023/09/14 10:58:01;;;;;;;15.32;8.13;;;;;;;-141.97;31.82;47261.53;5054069;28;20268;-84
2023/09/14 11:00:37;;;;;;;16.65;8.38;;;;;;;-141.97;31.53;47092.41;5036240;28;20242;-83
2023/09/14 11:03:03;;;;;;;14.02;8.32;;;;;;;-141.97;31.64;47286.53;5026204;28;20240;-83